Sid Moller — WDF9421 — position and weather

sailwx.info

Track history (hours):
 
Tides and Currents Weather Stations Pressure Air Temp Water Temp Dewpoint Dewpoint Depression Visibility Wind Speed Wind Dir Waves Ship Positions

Sid Moller

Owner: Genesis Marine, LLC, Houston, TX. More information available from US FCC via Universal Licensing System and Coast Guard Vessel Documentation Center.

Last reported at 2014-Nov-24 09:03 UTC. Time now 2014-Nov-25 22:08 UTC.
Position N 29°52' W 092°22'.

; draft 2.7 m.

Type: Towing. MMSI: 367504980.

Date/timePositionNaut miles runAvg speedWind from/ knotsBaromVisibWave heightAir tempDewpointWater temp
2014-Nov-24 09:03N 29°52' W 092°22'0 0.0
2014-Nov-24 08:33N 29°52' W 092°22'0 0.0
2014-Nov-24 07:22N 29°52' W 092°22'51 3.9
2014-Nov-23 18:25N 29°40' W 091°26'5 5.7
2014-Nov-23 17:33N 29°38' W 091°20'4 4.5
2014-Nov-23 16:33N 29°39' W 091°15'5 5.2
2014-Nov-23 15:33N 29°43' W 091°12'3 3.3
2014-Nov-23 14:33N 29°47' W 091°11'5 5.0
2014-Nov-23 13:33N 29°52' W 091°12'2 1.9
2014-Nov-23 12:33N 29°53' W 091°13'0 0.0
2014-Nov-23 11:32N 29°53' W 091°13'0 0.0
2014-Nov-23 04:04N 29°53' W 091°13'6 3.6
2014-Nov-23 02:27N 29°58' W 091°16'  
2014-Nov-19 19:16N 29°48' W 091°10'3 4.1
2014-Nov-19 18:34N 29°45' W 091°11'3 3.4
2014-Nov-19 17:34N 29°43' W 091°13'4 3.5
2014-Nov-19 16:34N 29°39' W 091°15'4 4.0
2014-Nov-19 15:34N 29°38' W 091°19'4 3.6
2014-Nov-19 14:34N 29°39' W 091°23'4 4.3
2014-Nov-19 13:33N 29°41' W 091°28'3 3.2
2014-Nov-19 12:33N 29°42' W 091°31'3 3.4
2014-Nov-19 11:33N 29°44' W 091°34'3 3.1
2014-Nov-19 10:34N 29°46' W 091°37'  
2014-Nov-16 18:30N 29°19' W 094°52'4 4.3
2014-Nov-16 17:32N 29°17' W 094°56'2 1.1
2014-Nov-16 15:19N 29°16' W 094°59'4 3.3
2014-Nov-16 14:15N 29°14' W 095°02'  
Track history (hours):
 
Tides and Currents Weather Stations Pressure Air Temp Water Temp Dewpoint Dewpoint Depression Visibility Wind Speed Wind Dir Waves Ship Positions

Sid Moller

Owner: Genesis Marine, LLC, Houston, TX. More information available from US FCC via Universal Licensing System and Coast Guard Vessel Documentation Center.

Last reported at 2014-Nov-24 09:03 UTC. Time now 2014-Nov-25 22:08 UTC.
Position N 29°52' W 092°22'.

; draft 2.7 m.

Type: Towing. MMSI: 367504980.

Date/timePositionNaut miles runAvg speedWind from/ knotsBaromVisibWave heightAir tempDewpointWater temp
2014-Nov-24 09:03N 29°52' W 092°22'0 0.0
2014-Nov-24 08:33N 29°52' W 092°22'0 0.0
2014-Nov-24 07:22N 29°52' W 092°22'51 3.9
2014-Nov-23 18:25N 29°40' W 091°26'5 5.7
2014-Nov-23 17:33N 29°38' W 091°20'4 4.5
2014-Nov-23 16:33N 29°39' W 091°15'5 5.2
2014-Nov-23 15:33N 29°43' W 091°12'3 3.3
2014-Nov-23 14:33N 29°47' W 091°11'5 5.0
2014-Nov-23 13:33N 29°52' W 091°12'2 1.9
2014-Nov-23 12:33N 29°53' W 091°13'0 0.0
2014-Nov-23 11:32N 29°53' W 091°13'0 0.0
2014-Nov-23 04:04N 29°53' W 091°13'6 3.6
2014-Nov-23 02:27N 29°58' W 091°16'  
2014-Nov-19 19:16N 29°48' W 091°10'3 4.1
2014-Nov-19 18:34N 29°45' W 091°11'3 3.4
2014-Nov-19 17:34N 29°43' W 091°13'4 3.5
2014-Nov-19 16:34N 29°39' W 091°15'4 4.0
2014-Nov-19 15:34N 29°38' W 091°19'4 3.6
2014-Nov-19 14:34N 29°39' W 091°23'4 4.3
2014-Nov-19 13:33N 29°41' W 091°28'3 3.2
2014-Nov-19 12:33N 29°42' W 091°31'3 3.4
2014-Nov-19 11:33N 29°44' W 091°34'3 3.1
2014-Nov-19 10:34N 29°46' W 091°37'  
2014-Nov-16 18:30N 29°19' W 094°52'4 4.3
2014-Nov-16 17:32N 29°17' W 094°56'2 1.1
2014-Nov-16 15:19N 29°16' W 094°59'4 3.3
2014-Nov-16 14:15N 29°14' W 095°02'  

Dump ship's entire track history